sensor_id;sensor_type;location;lat;lon;timestamp;P1;durP1;ratioP1;P2;durP2;ratioP2
52180;SDS011;38158;53.338;6.514;2023-07-29T00:01:59;9.10;;;6.47;;
52180;SDS011;38158;53.338;6.514;2023-07-29T00:04:25;8.85;;;6.68;;
52180;SDS011;38158;53.338;6.514;2023-07-29T00:06:51;8.25;;;6.15;;
52180;SDS011;38158;53.338;6.514;2023-07-29T00:09:16;10.38;;;5.75;;
52180;SDS011;38158;53.338;6.514;2023-07-29T00:11:42;10.30;;;6.30;;
52180;SDS011;38158;53.338;6.514;2023-07-29T00:14:08;11.20;;;6.80;;
52180;SDS011;38158;53.338;6.514;2023-07-29T00:16:33;8.32;;;5.80;;
52180;SDS011;38158;53.338;6.514;2023-07-29T00:18:59;8.13;;;5.80;;
52180;SDS011;38158;53.338;6.514;2023-07-29T00:21:25;8.95;;;5.95;;
52180;SDS011;38158;53.338;6.514;2023-07-29T00:23:50;8.60;;;6.35;;
52180;SDS011;38158;53.338;6.514;2023-07-29T00:26:16;12.73;;;6.88;;
52180;SDS011;38158;53.338;6.514;2023-07-29T00:28:42;9.07;;;6.72;;
52180;SDS011;38158;53.338;6.514;2023-07-29T00:31:08;9.25;;;5.78;;
52180;SDS011;38158;53.338;6.514;2023-07-29T00:33:33;10.77;;;5.93;;
52180;SDS011;38158;53.338;6.514;2023-07-29T00:35:59;10.65;;;5.93;;
52180;SDS011;38158;53.338;6.514;2023-07-29T00:38:28;9.63;;;6.70;;
52180;SDS011;38158;53.338;6.514;2023-07-29T00:40:53;10.73;;;7.35;;
52180;SDS011;38158;53.338;6.514;2023-07-29T00:43:19;14.32;;;6.40;;
52180;SDS011;38158;53.338;6.514;2023-07-29T00:45:45;10.80;;;7.13;;
52180;SDS011;38158;53.338;6.514;2023-07-29T00:48:12;8.13;;;6.07;;
52180;SDS011;38158;53.338;6.514;2023-07-29T00:50:38;10.35;;;6.35;;
52180;SDS011;38158;53.338;6.514;2023-07-29T00:53:04;8.45;;;5.95;;
52180;SDS011;38158;53.338;6.514;2023-07-29T00:55:31;9.33;;;6.80;;
52180;SDS011;38158;53.338;6.514;2023-07-29T00:57:57;9.32;;;6.05;;
52180;SDS011;38158;53.338;6.514;2023-07-29T01:00:22;9.20;;;5.72;;
52180;SDS011;38158;53.338;6.514;2023-07-29T01:02:49;9.57;;;6.65;;
52180;SDS011;38158;53.338;6.514;2023-07-29T01:05:15;9.85;;;7.25;;
52180;SDS011;38158;53.338;6.514;2023-07-29T01:16:08;10.93;;;7.10;;
52180;SDS011;38158;53.338;6.514;2023-07-29T01:18:41;12.55;;;7.47;;
52180;SDS011;38158;53.338;6.514;2023-07-29T01:21:08;10.95;;;7.88;;
52180;SDS011;38158;53.338;6.514;2023-07-29T01:23:36;10.63;;;7.50;;
52180;SDS011;38158;53.338;6.514;2023-07-29T01:26:02;10.27;;;7.22;;
52180;SDS011;38158;53.338;6.514;2023-07-29T01:28:28;9.02;;;6.32;;
52180;SDS011;38158;53.338;6.514;2023-07-29T01:31:01;11.57;;;7.28;;
52180;SDS011;38158;53.338;6.514;2023-07-29T01:33:46;13.43;;;8.38;;
52180;SDS011;38158;53.338;6.514;2023-07-29T01:36:18;10.30;;;7.00;;
52180;SDS011;38158;53.338;6.514;2023-07-29T01:38:48;14.57;;;7.88;;
52180;SDS011;38158;53.338;6.514;2023-07-29T01:41:16;11.10;;;7.45;;
52180;SDS011;38158;53.338;6.514;2023-07-29T01:43:43;11.38;;;7.30;;
52180;SDS011;38158;53.338;6.514;2023-07-29T01:46:10;12.60;;;8.27;;
52180;SDS011;38158;53.338;6.514;2023-07-29T01:48:37;10.75;;;7.88;;
52180;SDS011;38158;53.338;6.514;2023-07-29T01:51:03;13.13;;;8.70;;
52180;SDS011;38158;53.338;6.514;2023-07-29T01:53:29;12.32;;;7.80;;
52180;SDS011;38158;53.338;6.514;2023-07-29T01:55:55;12.77;;;7.82;;
52180;SDS011;38158;53.338;6.514;2023-07-29T01:58:22;10.25;;;7.88;;
52180;SDS011;38158;53.338;6.514;2023-07-29T02:00:48;9.70;;;7.50;;
52180;SDS011;38158;53.338;6.514;2023-07-29T02:03:13;12.25;;;7.45;;
52180;SDS011;38158;53.338;6.514;2023-07-29T02:05:39;10.23;;;7.88;;
52180;SDS011;38158;53.338;6.514;2023-07-29T02:08:05;9.95;;;7.25;;
52180;SDS011;38158;53.338;6.514;2023-07-29T02:10:31;11.63;;;7.70;;
52180;SDS011;38158;53.338;6.514;2023-07-29T02:12:57;11.20;;;8.10;;
52180;SDS011;38158;53.338;6.514;2023-07-29T02:15:22;11.27;;;7.82;;
52180;SDS011;38158;53.338;6.514;2023-07-29T02:17:49;9.35;;;6.55;;
52180;SDS011;38158;53.338;6.514;2023-07-29T02:20:15;11.25;;;8.55;;
52180;SDS011;38158;53.338;6.514;2023-07-29T02:22:41;10.25;;;8.05;;
52180;SDS011;38158;53.338;6.514;2023-07-29T02:25:07;9.70;;;7.70;;
52180;SDS011;38158;53.338;6.514;2023-07-29T02:27:33;12.05;;;8.18;;
52180;SDS011;38158;53.338;6.514;2023-07-29T02:29:58;13.63;;;8.18;;
52180;SDS011;38158;53.338;6.514;2023-07-29T02:32:24;11.35;;;7.78;;
52180;SDS011;38158;53.338;6.514;2023-07-29T02:34:50;11.32;;;8.73;;
52180;SDS011;38158;53.338;6.514;2023-07-29T02:37:15;11.07;;;7.68;;
52180;SDS011;38158;53.338;6.514;2023-07-29T02:39:42;11.50;;;7.22;;
52180;SDS011;38158;53.338;6.514;2023-07-29T02:42:07;11.82;;;8.00;;
52180;SDS011;38158;53.338;6.514;2023-07-29T02:44:33;11.68;;;8.32;;
52180;SDS011;38158;53.338;6.514;2023-07-29T02:46:59;10.45;;;7.50;;
52180;SDS011;38158;53.338;6.514;2023-07-29T02:49:24;10.23;;;7.80;;
52180;SDS011;38158;53.338;6.514;2023-07-29T02:51:50;11.02;;;7.72;;
52180;SDS011;38158;53.338;6.514;2023-07-29T02:54:16;10.63;;;8.50;;
52180;SDS011;38158;53.338;6.514;2023-07-29T02:56:42;12.02;;;8.02;;
52180;SDS011;38158;53.338;6.514;2023-07-29T02:59:07;10.50;;;8.18;;
52180;SDS011;38158;53.338;6.514;2023-07-29T03:01:33;10.85;;;8.10;;
52180;SDS011;38158;53.338;6.514;2023-07-29T03:03:58;11.60;;;8.02;;
52180;SDS011;38158;53.338;6.514;2023-07-29T03:06:24;12.18;;;7.88;;
52180;SDS011;38158;53.338;6.514;2023-07-29T03:08:50;8.63;;;5.90;;
52180;SDS011;38158;53.338;6.514;2023-07-29T03:11:16;11.95;;;8.48;;
52180;SDS011;38158;53.338;6.514;2023-07-29T03:13:42;12.73;;;7.78;;
52180;SDS011;38158;53.338;6.514;2023-07-29T03:18:35;11.30;;;7.78;;
52180;SDS011;38158;53.338;6.514;2023-07-29T03:21:01;11.10;;;7.55;;
52180;SDS011;38158;53.338;6.514;2023-07-29T03:23:27;10.40;;;7.85;;
52180;SDS011;38158;53.338;6.514;2023-07-29T03:25:54;10.57;;;8.23;;
52180;SDS011;38158;53.338;6.514;2023-07-29T03:28:22;13.43;;;8.40;;
52180;SDS011;38158;53.338;6.514;2023-07-29T03:30:50;12.55;;;8.35;;
52180;SDS011;38158;53.338;6.514;2023-07-29T03:33:15;12.18;;;7.97;;
52180;SDS011;38158;53.338;6.514;2023-07-29T03:35:41;12.90;;;8.68;;
52180;SDS011;38158;53.338;6.514;2023-07-29T03:38:09;11.55;;;8.23;;
52180;SDS011;38158;53.338;6.514;2023-07-29T03:40:39;11.55;;;8.13;;
52180;SDS011;38158;53.338;6.514;2023-07-29T03:43:05;11.63;;;8.70;;
52180;SDS011;38158;53.338;6.514;2023-07-29T03:45:31;12.32;;;8.63;;
52180;SDS011;38158;53.338;6.514;2023-07-29T03:47:57;15.23;;;8.18;;
52180;SDS011;38158;53.338;6.514;2023-07-29T03:50:23;11.60;;;8.55;;
52180;SDS011;38158;53.338;6.514;2023-07-29T03:52:49;12.32;;;8.73;;
52180;SDS011;38158;53.338;6.514;2023-07-29T03:55:15;12.07;;;7.97;;
52180;SDS011;38158;53.338;6.514;2023-07-29T03:57:41;10.43;;;7.15;;
52180;SDS011;38158;53.338;6.514;2023-07-29T04:00:07;11.65;;;8.02;;
52180;SDS011;38158;53.338;6.514;2023-07-29T04:02:34;11.30;;;7.35;;
52180;SDS011;38158;53.338;6.514;2023-07-29T04:05:02;12.38;;;8.60;;
52180;SDS011;38158;53.338;6.514;2023-07-29T04:07:29;11.93;;;7.22;;
52180;SDS011;38158;53.338;6.514;2023-07-29T04:09:55;11.45;;;7.60;;
52180;SDS011;38158;53.338;6.514;2023-07-29T04:12:22;13.95;;;8.32;;
52180;SDS011;38158;53.338;6.514;2023-07-29T04:14:48;11.23;;;8.07;;
52180;SDS011;38158;53.338;6.514;2023-07-29T04:17:14;11.63;;;7.88;;
52180;SDS011;38158;53.338;6.514;2023-07-29T04:19:40;13.68;;;8.35;;
52180;SDS011;38158;53.338;6.514;2023-07-29T04:22:05;13.80;;;8.50;;
52180;SDS011;38158;53.338;6.514;2023-07-29T04:24:31;11.45;;;8.18;;
52180;SDS011;38158;53.338;6.514;2023-07-29T04:26:57;13.20;;;7.95;;
52180;SDS011;38158;53.338;6.514;2023-07-29T04:29:23;9.77;;;6.65;;
52180;SDS011;38158;53.338;6.514;2023-07-29T04:31:52;9.43;;;6.90;;
52180;SDS011;38158;53.338;6.514;2023-07-29T04:34:18;11.38;;;7.35;;
52180;SDS011;38158;53.338;6.514;2023-07-29T04:36:45;8.97;;;6.67;;
52180;SDS011;38158;53.338;6.514;2023-07-29T04:39:11;9.18;;;6.50;;
52180;SDS011;38158;53.338;6.514;2023-07-29T04:41:36;10.30;;;5.88;;
52180;SDS011;38158;53.338;6.514;2023-07-29T04:44:02;10.25;;;6.68;;
52180;SDS011;38158;53.338;6.514;2023-07-29T04:46:28;8.90;;;5.88;;
52180;SDS011;38158;53.338;6.514;2023-07-29T04:48:53;10.65;;;6.45;;
52180;SDS011;38158;53.338;6.514;2023-07-29T04:51:19;8.10;;;5.15;;
52180;SDS011;38158;53.338;6.514;2023-07-29T04:53:45;8.93;;;6.50;;
52180;SDS011;38158;53.338;6.514;2023-07-29T04:56:11;9.45;;;5.90;;
52180;SDS011;38158;53.338;6.514;2023-07-29T04:58:36;8.73;;;5.47;;
52180;SDS011;38158;53.338;6.514;2023-07-29T05:01:02;10.95;;;5.72;;
52180;SDS011;38158;53.338;6.514;2023-07-29T05:03:29;9.00;;;4.85;;
52180;SDS011;38158;53.338;6.514;2023-07-29T05:05:54;11.10;;;5.85;;
52180;SDS011;38158;53.338;6.514;2023-07-29T05:08:21;8.85;;;5.72;;
52180;SDS011;38158;53.338;6.514;2023-07-29T05:10:50;11.98;;;6.30;;
52180;SDS011;38158;53.338;6.514;2023-07-29T05:13:17;10.88;;;6.38;;
52180;SDS011;38158;53.338;6.514;2023-07-29T05:15:43;9.32;;;5.80;;
52180;SDS011;38158;53.338;6.514;2023-07-29T05:18:09;8.57;;;5.32;;
52180;SDS011;38158;53.338;6.514;2023-07-29T05:20:34;12.77;;;5.95;;
52180;SDS011;38158;53.338;6.514;2023-07-29T05:23:00;11.00;;;5.43;;
52180;SDS011;38158;53.338;6.514;2023-07-29T05:25:26;8.32;;;5.78;;
52180;SDS011;38158;53.338;6.514;2023-07-29T05:27:52;10.43;;;5.47;;
52180;SDS011;38158;53.338;6.514;2023-07-29T05:30:17;8.95;;;5.40;;
52180;SDS011;38158;53.338;6.514;2023-07-29T05:32:43;12.75;;;5.50;;
52180;SDS011;38158;53.338;6.514;2023-07-29T05:35:10;11.85;;;5.93;;
52180;SDS011;38158;53.338;6.514;2023-07-29T05:37:39;9.90;;;5.07;;
52180;SDS011;38158;53.338;6.514;2023-07-29T05:40:07;9.45;;;5.93;;
52180;SDS011;38158;53.338;6.514;2023-07-29T05:42:36;6.93;;;4.43;;
52180;SDS011;38158;53.338;6.514;2023-07-29T05:45:01;12.52;;;5.30;;
52180;SDS011;38158;53.338;6.514;2023-07-29T05:47:27;7.78;;;4.00;;
52180;SDS011;38158;53.338;6.514;2023-07-29T05:49:53;7.45;;;4.07;;
52180;SDS011;38158;53.338;6.514;2023-07-29T05:52:19;11.23;;;4.85;;
52180;SDS011;38158;53.338;6.514;2023-07-29T05:54:45;7.03;;;3.88;;
52180;SDS011;38158;53.338;6.514;2023-07-29T05:57:11;9.13;;;4.18;;
52180;SDS011;38158;53.338;6.514;2023-07-29T05:59:37;8.55;;;4.00;;
52180;SDS011;38158;53.338;6.514;2023-07-29T06:02:03;8.55;;;3.70;;
52180;SDS011;38158;53.338;6.514;2023-07-29T06:04:29;8.80;;;3.35;;
52180;SDS011;38158;53.338;6.514;2023-07-29T06:06:55;8.48;;;3.85;;
52180;SDS011;38158;53.338;6.514;2023-07-29T06:09:22;6.05;;;3.67;;
52180;SDS011;38158;53.338;6.514;2023-07-29T06:11:48;5.75;;;3.75;;
52180;SDS011;38158;53.338;6.514;2023-07-29T06:14:14;8.77;;;3.38;;
52180;SDS011;38158;53.338;6.514;2023-07-29T06:16:40;7.07;;;3.42;;
52180;SDS011;38158;53.338;6.514;2023-07-29T06:19:06;8.07;;;3.35;;
52180;SDS011;38158;53.338;6.514;2023-07-29T06:21:33;6.53;;;3.58;;
52180;SDS011;38158;53.338;6.514;2023-07-29T06:23:59;6.07;;;2.85;;
52180;SDS011;38158;53.338;6.514;2023-07-29T06:26:25;8.25;;;3.50;;
52180;SDS011;38158;53.338;6.514;2023-07-29T06:28:51;6.03;;;3.42;;
52180;SDS011;38158;53.338;6.514;2023-07-29T06:31:17;9.05;;;3.63;;
52180;SDS011;38158;53.338;6.514;2023-07-29T06:33:42;7.55;;;2.95;;
52180;SDS011;38158;53.338;6.514;2023-07-29T06:36:08;7.93;;;2.83;;
52180;SDS011;38158;53.338;6.514;2023-07-29T06:38:34;7.95;;;3.78;;
52180;SDS011;38158;53.338;6.514;2023-07-29T06:40:59;7.22;;;3.53;;
52180;SDS011;38158;53.338;6.514;2023-07-29T06:43:25;6.80;;;3.45;;
52180;SDS011;38158;53.338;6.514;2023-07-29T06:45:51;5.97;;;2.50;;
52180;SDS011;38158;53.338;6.514;2023-07-29T06:48:17;9.45;;;3.20;;
52180;SDS011;38158;53.338;6.514;2023-07-29T06:50:44;7.95;;;3.58;;
52180;SDS011;38158;53.338;6.514;2023-07-29T06:53:09;6.32;;;3.17;;
52180;SDS011;38158;53.338;6.514;2023-07-29T06:55:35;6.60;;;3.13;;
52180;SDS011;38158;53.338;6.514;2023-07-29T06:58:01;8.90;;;3.33;;
52180;SDS011;38158;53.338;6.514;2023-07-29T07:00:27;8.63;;;3.28;;
52180;SDS011;38158;53.338;6.514;2023-07-29T07:02:52;6.15;;;3.03;;
52180;SDS011;38158;53.338;6.514;2023-07-29T07:05:18;7.55;;;3.35;;
52180;SDS011;38158;53.338;6.514;2023-07-29T07:07:44;7.07;;;2.80;;
52180;SDS011;38158;53.338;6.514;2023-07-29T07:10:10;5.95;;;3.15;;
52180;SDS011;38158;53.338;6.514;2023-07-29T07:12:35;8.95;;;3.70;;
52180;SDS011;38158;53.338;6.514;2023-07-29T07:15:01;12.32;;;3.65;;
52180;SDS011;38158;53.338;6.514;2023-07-29T07:17:27;8.35;;;4.10;;
52180;SDS011;38158;53.338;6.514;2023-07-29T07:19:53;9.15;;;3.67;;
52180;SDS011;38158;53.338;6.514;2023-07-29T07:22:18;8.55;;;2.78;;
52180;SDS011;38158;53.338;6.514;2023-07-29T07:24:44;8.13;;;3.25;;
52180;SDS011;38158;53.338;6.514;2023-07-29T07:27:10;9.50;;;3.80;;
52180;SDS011;38158;53.338;6.514;2023-07-29T07:29:35;7.65;;;3.58;;
52180;SDS011;38158;53.338;6.514;2023-07-29T07:32:01;9.82;;;3.63;;
52180;SDS011;38158;53.338;6.514;2023-07-29T07:34:27;7.32;;;3.10;;
52180;SDS011;38158;53.338;6.514;2023-07-29T07:36:53;9.75;;;3.38;;
52180;SDS011;38158;53.338;6.514;2023-07-29T07:39:18;7.57;;;3.53;;
52180;SDS011;38158;53.338;6.514;2023-07-29T07:41:44;7.47;;;3.13;;
52180;SDS011;38158;53.338;6.514;2023-07-29T07:44:10;8.15;;;2.90;;
52180;SDS011;38158;53.338;6.514;2023-07-29T07:46:37;10.02;;;3.60;;
52180;SDS011;38158;53.338;6.514;2023-07-29T07:49:03;7.70;;;3.58;;
52180;SDS011;38158;53.338;6.514;2023-07-29T07:51:29;10.68;;;2.85;;
52180;SDS011;38158;53.338;6.514;2023-07-29T07:53:55;7.65;;;3.30;;
52180;SDS011;38158;53.338;6.514;2023-07-29T07:56:20;8.30;;;3.00;;
52180;SDS011;38158;53.338;6.514;2023-07-29T07:58:46;10.02;;;3.47;;
52180;SDS011;38158;53.338;6.514;2023-07-29T08:01:12;8.02;;;2.97;;
52180;SDS011;38158;53.338;6.514;2023-07-29T08:03:37;9.02;;;2.83;;
52180;SDS011;38158;53.338;6.514;2023-07-29T08:06:03;9.82;;;3.30;;
52180;SDS011;38158;53.338;6.514;2023-07-29T08:08:29;6.63;;;2.80;;
52180;SDS011;38158;53.338;6.514;2023-07-29T08:10:56;6.45;;;3.00;;
52180;SDS011;38158;53.338;6.514;2023-07-29T08:15:48;7.18;;;2.10;;
52180;SDS011;38158;53.338;6.514;2023-07-29T08:18:15;10.52;;;3.83;;
52180;SDS011;38158;53.338;6.514;2023-07-29T08:20:41;7.00;;;3.07;;
52180;SDS011;38158;53.338;6.514;2023-07-29T08:23:16;6.35;;;2.25;;
52180;SDS011;38158;53.338;6.514;2023-07-29T08:25:41;8.10;;;2.55;;
52180;SDS011;38158;53.338;6.514;2023-07-29T08:28:07;5.47;;;2.28;;
52180;SDS011;38158;53.338;6.514;2023-07-29T08:30:33;6.22;;;2.00;;
52180;SDS011;38158;53.338;6.514;2023-07-29T08:32:58;5.80;;;2.50;;
52180;SDS011;38158;53.338;6.514;2023-07-29T08:35:24;6.10;;;2.45;;
52180;SDS011;38158;53.338;6.514;2023-07-29T08:37:50;5.45;;;2.50;;
52180;SDS011;38158;53.338;6.514;2023-07-29T08:40:15;8.95;;;2.17;;
52180;SDS011;38158;53.338;6.514;2023-07-29T08:42:41;5.20;;;2.20;;
52180;SDS011;38158;53.338;6.514;2023-07-29T08:45:12;7.57;;;2.28;;
52180;SDS011;38158;53.338;6.514;2023-07-29T08:47:38;6.07;;;2.58;;
52180;SDS011;38158;53.338;6.514;2023-07-29T08:50:04;7.75;;;2.47;;
52180;SDS011;38158;53.338;6.514;2023-07-29T08:52:31;6.00;;;2.25;;
52180;SDS011;38158;53.338;6.514;2023-07-29T08:54:58;4.68;;;2.17;;
52180;SDS011;38158;53.338;6.514;2023-07-29T08:57:23;4.47;;;2.07;;
52180;SDS011;38158;53.338;6.514;2023-07-29T08:59:51;5.30;;;1.92;;
52180;SDS011;38158;53.338;6.514;2023-07-29T09:02:17;3.88;;;1.65;;
52180;SDS011;38158;53.338;6.514;2023-07-29T09:04:43;7.65;;;1.92;;
52180;SDS011;38158;53.338;6.514;2023-07-29T09:07:09;6.25;;;1.98;;
52180;SDS011;38158;53.338;6.514;2023-07-29T09:09:35;6.47;;;1.95;;
52180;SDS011;38158;53.338;6.514;2023-07-29T09:12:01;5.38;;;1.38;;
52180;SDS011;38158;53.338;6.514;2023-07-29T09:14:27;4.10;;;1.87;;
52180;SDS011;38158;53.338;6.514;2023-07-29T09:16:53;7.78;;;1.70;;
52180;SDS011;38158;53.338;6.514;2023-07-29T09:19:19;4.68;;;1.52;;
52180;SDS011;38158;53.338;6.514;2023-07-29T09:21:45;5.40;;;1.55;;
52180;SDS011;38158;53.338;6.514;2023-07-29T09:24:12;5.15;;;1.70;;
52180;SDS011;38158;53.338;6.514;2023-07-29T09:26:40;3.38;;;1.33;;
52180;SDS011;38158;53.338;6.514;2023-07-29T09:29:14;5.32;;;1.30;;
52180;SDS011;38158;53.338;6.514;2023-07-29T09:31:40;6.20;;;1.60;;
52180;SDS011;38158;53.338;6.514;2023-07-29T09:34:05;5.18;;;1.10;;
52180;SDS011;38158;53.338;6.514;2023-07-29T09:36:31;3.95;;;1.02;;
52180;SDS011;38158;53.338;6.514;2023-07-29T09:41:25;6.05;;;1.60;;
52180;SDS011;38158;53.338;6.514;2023-07-29T09:43:55;3.38;;;1.10;;
52180;SDS011;38158;53.338;6.514;2023-07-29T09:46:25;2.95;;;1.30;;
52180;SDS011;38158;53.338;6.514;2023-07-29T09:48:56;4.07;;;1.20;;
52180;SDS011;38158;53.338;6.514;2023-07-29T09:51:22;4.32;;;1.35;;
52180;SDS011;38158;53.338;6.514;2023-07-29T09:53:50;6.20;;;1.40;;
52180;SDS011;38158;53.338;6.514;2023-07-29T09:56:17;5.22;;;1.23;;
52180;SDS011;38158;53.338;6.514;2023-07-29T09:58:48;2.80;;;1.00;;
52180;SDS011;38158;53.338;6.514;2023-07-29T10:01:15;3.85;;;1.10;;
52180;SDS011;38158;53.338;6.514;2023-07-29T10:03:41;2.25;;;0.93;;
52180;SDS011;38158;53.338;6.514;2023-07-29T10:06:09;3.30;;;1.00;;
52180;SDS011;38158;53.338;6.514;2023-07-29T10:08:35;3.25;;;1.08;;
52180;SDS011;38158;53.338;6.514;2023-07-29T10:11:05;5.50;;;1.70;;
52180;SDS011;38158;53.338;6.514;2023-07-29T10:13:32;5.30;;;1.17;;
52180;SDS011;38158;53.338;6.514;2023-07-29T10:15:59;4.97;;;1.50;;
52180;SDS011;38158;53.338;6.514;2023-07-29T10:18:27;2.30;;;0.80;;
52180;SDS011;38158;53.338;6.514;2023-07-29T10:20:54;4.22;;;1.20;;
52180;SDS011;38158;53.338;6.514;2023-07-29T10:23:22;4.57;;;0.80;;
52180;SDS011;38158;53.338;6.514;2023-07-29T10:26:06;3.38;;;0.80;;
52180;SDS011;38158;53.338;6.514;2023-07-29T10:28:36;3.10;;;0.82;;
52180;SDS011;38158;53.338;6.514;2023-07-29T10:31:05;2.85;;;1.02;;
52180;SDS011;38158;53.338;6.514;2023-07-29T10:33:32;3.80;;;1.00;;
52180;SDS011;38158;53.338;6.514;2023-07-29T10:35:59;4.10;;;0.93;;
52180;SDS011;38158;53.338;6.514;2023-07-29T10:38:26;3.03;;;0.77;;
52180;SDS011;38158;53.338;6.514;2023-07-29T10:40:53;4.50;;;0.98;;
52180;SDS011;38158;53.338;6.514;2023-07-29T10:43:25;3.13;;;0.82;;
52180;SDS011;38158;53.338;6.514;2023-07-29T10:45:55;2.60;;;0.70;;
52180;SDS011;38158;53.338;6.514;2023-07-29T10:53:47;3.35;;;0.70;;
52180;SDS011;38158;53.338;6.514;2023-07-29T10:56:13;3.65;;;0.80;;
52180;SDS011;38158;53.338;6.514;2023-07-29T11:01:50;4.20;;;0.95;;
52180;SDS011;38158;53.338;6.514;2023-07-29T11:14:57;5.28;;;1.35;;
52180;SDS011;38158;53.338;6.514;2023-07-29T11:17:34;5.20;;;1.42;;
52180;SDS011;38158;53.338;6.514;2023-07-29T11:20:01;2.55;;;1.08;;
52180;SDS011;38158;53.338;6.514;2023-07-29T11:22:28;3.35;;;1.20;;
52180;SDS011;38158;53.338;6.514;2023-07-29T11:24:55;4.28;;;1.15;;
52180;SDS011;38158;53.338;6.514;2023-07-29T11:27:21;5.10;;;1.42;;
52180;SDS011;38158;53.338;6.514;2023-07-29T11:29:47;4.40;;;1.23;;
52180;SDS011;38158;53.338;6.514;2023-07-29T11:32:13;5.25;;;1.50;;
52180;SDS011;38158;53.338;6.514;2023-07-29T11:34:40;3.00;;;1.30;;
52180;SDS011;38158;53.338;6.514;2023-07-29T11:37:06;4.23;;;1.33;;
52180;SDS011;38158;53.338;6.514;2023-07-29T11:39:39;4.20;;;1.25;;
52180;SDS011;38158;53.338;6.514;2023-07-29T11:42:06;2.97;;;0.80;;
52180;SDS011;38158;53.338;6.514;2023-07-29T11:44:35;3.78;;;1.08;;
52180;SDS011;38158;53.338;6.514;2023-07-29T11:47:01;2.50;;;1.00;;
52180;SDS011;38158;53.338;6.514;2023-07-29T11:49:27;2.85;;;1.10;;
52180;SDS011;38158;53.338;6.514;2023-07-29T11:51:53;3.88;;;0.88;;
52180;SDS011;38158;53.338;6.514;2023-07-29T11:54:19;3.35;;;1.10;;
52180;SDS011;38158;53.338;6.514;2023-07-29T11:56:46;2.42;;;1.05;;
52180;SDS011;38158;53.338;6.514;2023-07-29T11:59:13;2.72;;;1.08;;
52180;SDS011;38158;53.338;6.514;2023-07-29T12:04:05;3.17;;;1.17;;
52180;SDS011;38158;53.338;6.514;2023-07-29T12:06:31;6.78;;;1.52;;
52180;SDS011;38158;53.338;6.514;2023-07-29T12:08:57;6.60;;;0.93;;
52180;SDS011;38158;53.338;6.514;2023-07-29T12:11:23;3.90;;;1.30;;
52180;SDS011;38158;53.338;6.514;2023-07-29T12:13:49;6.90;;;1.38;;
52180;SDS011;38158;53.338;6.514;2023-07-29T12:16:18;5.90;;;1.52;;
52180;SDS011;38158;53.338;6.514;2023-07-29T12:18:44;5.07;;;1.50;;
52180;SDS011;38158;53.338;6.514;2023-07-29T12:21:09;3.47;;;1.35;;
52180;SDS011;38158;53.338;6.514;2023-07-29T12:23:35;3.15;;;0.95;;
52180;SDS011;38158;53.338;6.514;2023-07-29T12:26:01;3.33;;;1.10;;
52180;SDS011;38158;53.338;6.514;2023-07-29T12:28:27;4.15;;;1.33;;
52180;SDS011;38158;53.338;6.514;2023-07-29T12:30:53;3.55;;;0.90;;
52180;SDS011;38158;53.338;6.514;2023-07-29T12:33:30;2.75;;;1.17;;
52180;SDS011;38158;53.338;6.514;2023-07-29T12:35:57;2.72;;;1.00;;
52180;SDS011;38158;53.338;6.514;2023-07-29T12:38:23;3.97;;;0.95;;
52180;SDS011;38158;53.338;6.514;2023-07-29T12:40:51;2.03;;;0.90;;
52180;SDS011;38158;53.338;6.514;2023-07-29T12:43:17;3.53;;;0.88;;
52180;SDS011;38158;53.338;6.514;2023-07-29T12:45:43;2.78;;;1.20;;
52180;SDS011;38158;53.338;6.514;2023-07-29T12:48:09;3.17;;;1.10;;
52180;SDS011;38158;53.338;6.514;2023-07-29T12:50:35;4.80;;;1.25;;
52180;SDS011;38158;53.338;6.514;2023-07-29T12:53:02;5.95;;;1.60;;
52180;SDS011;38158;53.338;6.514;2023-07-29T12:55:27;3.90;;;1.55;;
52180;SDS011;38158;53.338;6.514;2023-07-29T12:57:53;2.97;;;1.00;;
52180;SDS011;38158;53.338;6.514;2023-07-29T13:00:19;4.53;;;1.00;;
52180;SDS011;38158;53.338;6.514;2023-07-29T13:02:44;4.78;;;1.55;;
52180;SDS011;38158;53.338;6.514;2023-07-29T13:05:10;5.88;;;1.45;;
52180;SDS011;38158;53.338;6.514;2023-07-29T13:07:39;2.65;;;0.90;;
52180;SDS011;38158;53.338;6.514;2023-07-29T13:10:05;6.95;;;1.58;;
52180;SDS011;38158;53.338;6.514;2023-07-29T13:12:31;6.47;;;1.43;;
52180;SDS011;38158;53.338;6.514;2023-07-29T13:14:57;9.23;;;1.95;;
52180;SDS011;38158;53.338;6.514;2023-07-29T13:17:23;2.67;;;1.08;;
52180;SDS011;38158;53.338;6.514;2023-07-29T13:19:49;3.70;;;1.15;;
52180;SDS011;38158;53.338;6.514;2023-07-29T13:22:15;4.07;;;1.13;;
52180;SDS011;38158;53.338;6.514;2023-07-29T13:24:41;2.47;;;1.00;;
52180;SDS011;38158;53.338;6.514;2023-07-29T13:27:06;6.10;;;1.63;;
52180;SDS011;38158;53.338;6.514;2023-07-29T13:29:32;2.95;;;1.23;;
52180;SDS011;38158;53.338;6.514;2023-07-29T13:31:58;3.92;;;1.45;;
52180;SDS011;38158;53.338;6.514;2023-07-29T13:34:23;2.58;;;0.90;;
52180;SDS011;38158;53.338;6.514;2023-07-29T13:36:49;4.65;;;1.10;;
52180;SDS011;38158;53.338;6.514;2023-07-29T13:39:15;4.47;;;1.20;;
52180;SDS011;38158;53.338;6.514;2023-07-29T13:41:41;3.67;;;1.15;;
52180;SDS011;38158;53.338;6.514;2023-07-29T13:44:07;4.40;;;1.10;;
52180;SDS011;38158;53.338;6.514;2023-07-29T13:46:32;3.47;;;0.90;;
52180;SDS011;38158;53.338;6.514;2023-07-29T13:48:58;5.10;;;1.20;;
52180;SDS011;38158;53.338;6.514;2023-07-29T13:51:24;3.80;;;1.40;;
52180;SDS011;38158;53.338;6.514;2023-07-29T13:53:50;3.08;;;1.15;;
52180;SDS011;38158;53.338;6.514;2023-07-29T13:56:15;5.50;;;1.27;;
52180;SDS011;38158;53.338;6.514;2023-07-29T13:58:41;4.65;;;1.30;;
52180;SDS011;38158;53.338;6.514;2023-07-29T14:01:07;6.75;;;1.10;;
52180;SDS011;38158;53.338;6.514;2023-07-29T14:03:32;4.93;;;1.23;;
52180;SDS011;38158;53.338;6.514;2023-07-29T14:05:58;4.30;;;1.02;;
52180;SDS011;38158;53.338;6.514;2023-07-29T14:08:24;4.18;;;1.48;;
52180;SDS011;38158;53.338;6.514;2023-07-29T14:10:49;5.27;;;1.20;;
52180;SDS011;38158;53.338;6.514;2023-07-29T14:13:15;2.88;;;1.08;;
52180;SDS011;38158;53.338;6.514;2023-07-29T14:15:41;4.25;;;1.00;;
52180;SDS011;38158;53.338;6.514;2023-07-29T14:18:06;5.17;;;1.30;;
52180;SDS011;38158;53.338;6.514;2023-07-29T14:20:33;4.78;;;0.98;;
52180;SDS011;38158;53.338;6.514;2023-07-29T14:22:59;5.55;;;1.05;;
52180;SDS011;38158;53.338;6.514;2023-07-29T14:25:24;4.10;;;1.40;;
52180;SDS011;38158;53.338;6.514;2023-07-29T14:27:50;3.60;;;1.15;;
52180;SDS011;38158;53.338;6.514;2023-07-29T14:30:16;5.05;;;1.60;;
52180;SDS011;38158;53.338;6.514;2023-07-29T14:32:41;3.72;;;0.98;;
52180;SDS011;38158;53.338;6.514;2023-07-29T14:35:08;4.25;;;1.40;;
52180;SDS011;38158;53.338;6.514;2023-07-29T14:37:34;4.47;;;1.13;;
52180;SDS011;38158;53.338;6.514;2023-07-29T14:40:00;4.65;;;1.27;;
52180;SDS011;38158;53.338;6.514;2023-07-29T14:42:26;2.20;;;0.70;;
52180;SDS011;38158;53.338;6.514;2023-07-29T14:44:52;4.13;;;1.40;;
52180;SDS011;38158;53.338;6.514;2023-07-29T14:47:18;4.30;;;1.20;;
52180;SDS011;38158;53.338;6.514;2023-07-29T14:49:44;5.43;;;1.85;;
52180;SDS011;38158;53.338;6.514;2023-07-29T14:52:10;4.68;;;1.30;;
52180;SDS011;38158;53.338;6.514;2023-07-29T14:54:36;4.00;;;1.20;;
52180;SDS011;38158;53.338;6.514;2023-07-29T14:57:02;4.33;;;1.43;;
52180;SDS011;38158;53.338;6.514;2023-07-29T14:59:27;4.47;;;1.13;;
52180;SDS011;38158;53.338;6.514;2023-07-29T15:01:53;4.30;;;1.10;;
52180;SDS011;38158;53.338;6.514;2023-07-29T15:04:19;2.97;;;0.90;;
52180;SDS011;38158;53.338;6.514;2023-07-29T15:06:45;5.72;;;2.65;;
52180;SDS011;38158;53.338;6.514;2023-07-29T15:09:10;5.00;;;1.70;;
52180;SDS011;38158;53.338;6.514;2023-07-29T15:11:36;4.72;;;1.48;;
52180;SDS011;38158;53.338;6.514;2023-07-29T15:14:02;9.63;;;3.47;;
52180;SDS011;38158;53.338;6.514;2023-07-29T15:16:30;6.60;;;3.45;;